sensor_id;sensor_type;location;lat;lon;timestamp;P1;durP1;ratioP1;P2;durP2;ratioP2
5587;SDS011;2816;49.778;9.986;2023-06-22T00:01:21;14.40;;;9.20;;
5587;SDS011;2816;49.778;9.986;2023-06-22T00:03:49;11.40;;;9.43;;
5587;SDS011;2816;49.778;9.986;2023-06-22T00:06:16;11.57;;;10.00;;
5587;SDS011;2816;49.778;9.986;2023-06-22T00:08:44;11.00;;;9.70;;
5587;SDS011;2816;49.778;9.986;2023-06-22T00:11:11;14.77;;;10.07;;
5587;SDS011;2816;49.778;9.986;2023-06-22T00:13:38;13.60;;;9.63;;
5587;SDS011;2816;49.778;9.986;2023-06-22T00:16:05;18.13;;;9.40;;
5587;SDS011;2816;49.778;9.986;2023-06-22T00:18:32;12.93;;;9.77;;
5587;SDS011;2816;49.778;9.986;2023-06-22T00:20:59;11.80;;;9.87;;
5587;SDS011;2816;49.778;9.986;2023-06-22T00:23:27;12.77;;;9.77;;
5587;SDS011;2816;49.778;9.986;2023-06-22T00:26:00;17.10;;;9.90;;
5587;SDS011;2816;49.778;9.986;2023-06-22T00:28:27;16.17;;;10.30;;
5587;SDS011;2816;49.778;9.986;2023-06-22T00:30:55;17.10;;;11.30;;
5587;SDS011;2816;49.778;9.986;2023-06-22T00:33:22;11.83;;;9.30;;
5587;SDS011;2816;49.778;9.986;2023-06-22T00:35:50;14.63;;;10.30;;
5587;SDS011;2816;49.778;9.986;2023-06-22T00:38:18;13.23;;;10.90;;
5587;SDS011;2816;49.778;9.986;2023-06-22T00:40:46;16.83;;;12.63;;
5587;SDS011;2816;49.778;9.986;2023-06-22T00:43:14;17.00;;;12.80;;
5587;SDS011;2816;49.778;9.986;2023-06-22T00:45:41;19.80;;;13.00;;
5587;SDS011;2816;49.778;9.986;2023-06-22T00:48:08;14.07;;;12.60;;
5587;SDS011;2816;49.778;9.986;2023-06-22T00:50:35;17.77;;;13.70;;
5587;SDS011;2816;49.778;9.986;2023-06-22T00:53:03;17.10;;;13.90;;
5587;SDS011;2816;49.778;9.986;2023-06-22T00:55:33;13.97;;;12.30;;
5587;SDS011;2816;49.778;9.986;2023-06-22T00:58:02;16.00;;;12.30;;
5587;SDS011;2816;49.778;9.986;2023-06-22T01:00:32;15.00;;;12.53;;
5587;SDS011;2816;49.778;9.986;2023-06-22T01:02:58;13.57;;;11.20;;
5587;SDS011;2816;49.778;9.986;2023-06-22T01:05:25;13.60;;;12.13;;
5587;SDS011;2816;49.778;9.986;2023-06-22T01:07:58;15.70;;;12.90;;
5587;SDS011;2816;49.778;9.986;2023-06-22T01:10:34;15.30;;;12.07;;
5587;SDS011;2816;49.778;9.986;2023-06-22T01:13:06;14.20;;;12.20;;
5587;SDS011;2816;49.778;9.986;2023-06-22T01:15:42;15.60;;;10.33;;
5587;SDS011;2816;49.778;9.986;2023-06-22T01:18:14;14.57;;;11.47;;
5587;SDS011;2816;49.778;9.986;2023-06-22T01:20:43;16.77;;;12.27;;
5587;SDS011;2816;49.778;9.986;2023-06-22T01:23:11;13.90;;;11.33;;
5587;SDS011;2816;49.778;9.986;2023-06-22T01:25:56;16.50;;;11.00;;
5587;SDS011;2816;49.778;9.986;2023-06-22T01:28:42;11.57;;;9.90;;
5587;SDS011;2816;49.778;9.986;2023-06-22T01:31:12;13.03;;;10.50;;
5587;SDS011;2816;49.778;9.986;2023-06-22T01:33:42;17.03;;;11.80;;
5587;SDS011;2816;49.778;9.986;2023-06-22T01:36:13;22.03;;;11.10;;
5587;SDS011;2816;49.778;9.986;2023-06-22T01:38:42;14.00;;;10.53;;
5587;SDS011;2816;49.778;9.986;2023-06-22T01:41:10;18.00;;;11.47;;
5587;SDS011;2816;49.778;9.986;2023-06-22T01:43:38;15.20;;;12.13;;
5587;SDS011;2816;49.778;9.986;2023-06-22T01:46:07;14.53;;;11.73;;
5587;SDS011;2816;49.778;9.986;2023-06-22T01:48:34;14.77;;;11.10;;
5587;SDS011;2816;49.778;9.986;2023-06-22T01:51:01;16.50;;;10.90;;
5587;SDS011;2816;49.778;9.986;2023-06-22T01:53:29;14.60;;;11.50;;
5587;SDS011;2816;49.778;9.986;2023-06-22T01:55:56;17.03;;;13.20;;
5587;SDS011;2816;49.778;9.986;2023-06-22T01:58:25;15.73;;;12.87;;
5587;SDS011;2816;49.778;9.986;2023-06-22T02:00:56;18.80;;;13.03;;
5587;SDS011;2816;49.778;9.986;2023-06-22T02:03:29;17.80;;;14.63;;
5587;SDS011;2816;49.778;9.986;2023-06-22T02:06:01;17.07;;;14.13;;
5587;SDS011;2816;49.778;9.986;2023-06-22T02:08:31;25.63;;;15.43;;
5587;SDS011;2816;49.778;9.986;2023-06-22T02:11:03;24.47;;;13.17;;
5587;SDS011;2816;49.778;9.986;2023-06-22T02:13:32;16.07;;;12.23;;
5587;SDS011;2816;49.778;9.986;2023-06-22T02:16:00;19.30;;;14.10;;
5587;SDS011;2816;49.778;9.986;2023-06-22T02:18:29;18.37;;;14.33;;
5587;SDS011;2816;49.778;9.986;2023-06-22T02:20:55;16.43;;;12.07;;
5587;SDS011;2816;49.778;9.986;2023-06-22T02:23:22;15.10;;;10.87;;
5587;SDS011;2816;49.778;9.986;2023-06-22T02:25:49;14.60;;;11.93;;
5587;SDS011;2816;49.778;9.986;2023-06-22T02:28:16;14.73;;;13.23;;
5587;SDS011;2816;49.778;9.986;2023-06-22T02:30:43;12.07;;;10.80;;
5587;SDS011;2816;49.778;9.986;2023-06-22T02:33:10;19.90;;;11.37;;
5587;SDS011;2816;49.778;9.986;2023-06-22T02:35:38;15.70;;;11.30;;
5587;SDS011;2816;49.778;9.986;2023-06-22T02:38:10;27.27;;;13.53;;
5587;SDS011;2816;49.778;9.986;2023-06-22T02:40:37;18.63;;;13.43;;
5587;SDS011;2816;49.778;9.986;2023-06-22T02:43:04;20.50;;;12.87;;
5587;SDS011;2816;49.778;9.986;2023-06-22T02:45:31;20.90;;;13.17;;
5587;SDS011;2816;49.778;9.986;2023-06-22T02:47:58;15.17;;;13.10;;
5587;SDS011;2816;49.778;9.986;2023-06-22T02:50:25;17.60;;;14.87;;
5587;SDS011;2816;49.778;9.986;2023-06-22T02:52:53;19.50;;;13.53;;
5587;SDS011;2816;49.778;9.986;2023-06-22T02:55:20;16.80;;;13.13;;
5587;SDS011;2816;49.778;9.986;2023-06-22T02:57:47;17.30;;;13.57;;
5587;SDS011;2816;49.778;9.986;2023-06-22T03:00:17;20.67;;;14.87;;
5587;SDS011;2816;49.778;9.986;2023-06-22T03:02:45;16.50;;;13.70;;
5587;SDS011;2816;49.778;9.986;2023-06-22T03:05:13;16.23;;;14.53;;
5587;SDS011;2816;49.778;9.986;2023-06-22T03:07:43;17.53;;;13.20;;
5587;SDS011;2816;49.778;9.986;2023-06-22T03:10:13;20.20;;;14.17;;
5587;SDS011;2816;49.778;9.986;2023-06-22T03:12:40;18.37;;;14.00;;
5587;SDS011;2816;49.778;9.986;2023-06-22T03:15:09;17.83;;;14.57;;
5587;SDS011;2816;49.778;9.986;2023-06-22T03:17:37;22.80;;;14.73;;
5587;SDS011;2816;49.778;9.986;2023-06-22T03:20:06;15.43;;;13.90;;
5587;SDS011;2816;49.778;9.986;2023-06-22T03:22:35;19.63;;;13.87;;
5587;SDS011;2816;49.778;9.986;2023-06-22T03:25:02;18.07;;;13.17;;
5587;SDS011;2816;49.778;9.986;2023-06-22T03:27:36;21.03;;;13.83;;
5587;SDS011;2816;49.778;9.986;2023-06-22T03:30:03;19.80;;;13.40;;
5587;SDS011;2816;49.778;9.986;2023-06-22T03:32:31;19.30;;;14.17;;
5587;SDS011;2816;49.778;9.986;2023-06-22T03:34:58;18.33;;;14.37;;
5587;SDS011;2816;49.778;9.986;2023-06-22T03:37:25;22.17;;;15.47;;
5587;SDS011;2816;49.778;9.986;2023-06-22T03:39:52;18.10;;;14.47;;
5587;SDS011;2816;49.778;9.986;2023-06-22T03:42:19;17.80;;;12.70;;
5587;SDS011;2816;49.778;9.986;2023-06-22T03:44:47;20.63;;;14.40;;
5587;SDS011;2816;49.778;9.986;2023-06-22T03:47:14;18.20;;;13.70;;
5587;SDS011;2816;49.778;9.986;2023-06-22T03:49:41;15.50;;;12.20;;
5587;SDS011;2816;49.778;9.986;2023-06-22T03:52:08;15.93;;;11.80;;
5587;SDS011;2816;49.778;9.986;2023-06-22T03:54:36;22.20;;;16.27;;
5587;SDS011;2816;49.778;9.986;2023-06-22T03:57:03;20.13;;;14.73;;
5587;SDS011;2816;49.778;9.986;2023-06-22T03:59:30;15.37;;;13.77;;
5587;SDS011;2816;49.778;9.986;2023-06-22T04:01:59;20.70;;;16.33;;
5587;SDS011;2816;49.778;9.986;2023-06-22T04:04:26;19.47;;;15.90;;
5587;SDS011;2816;49.778;9.986;2023-06-22T04:06:53;17.63;;;15.73;;
5587;SDS011;2816;49.778;9.986;2023-06-22T04:09:19;15.63;;;12.77;;
5587;SDS011;2816;49.778;9.986;2023-06-22T04:11:47;18.00;;;15.10;;
5587;SDS011;2816;49.778;9.986;2023-06-22T04:14:14;18.37;;;16.27;;
5587;SDS011;2816;49.778;9.986;2023-06-22T04:16:41;21.10;;;16.23;;
5587;SDS011;2816;49.778;9.986;2023-06-22T04:19:10;19.50;;;15.73;;
5587;SDS011;2816;49.778;9.986;2023-06-22T04:21:41;18.60;;;15.67;;
5587;SDS011;2816;49.778;9.986;2023-06-22T04:24:08;17.90;;;15.70;;
5587;SDS011;2816;49.778;9.986;2023-06-22T04:26:35;20.97;;;16.90;;
5587;SDS011;2816;49.778;9.986;2023-06-22T04:29:03;18.43;;;16.53;;
5587;SDS011;2816;49.778;9.986;2023-06-22T04:31:30;21.53;;;17.07;;
5587;SDS011;2816;49.778;9.986;2023-06-22T04:34:01;18.40;;;15.23;;
5587;SDS011;2816;49.778;9.986;2023-06-22T04:36:33;22.73;;;17.80;;
5587;SDS011;2816;49.778;9.986;2023-06-22T04:39:03;22.70;;;17.33;;
5587;SDS011;2816;49.778;9.986;2023-06-22T04:41:31;21.93;;;15.13;;
5587;SDS011;2816;49.778;9.986;2023-06-22T04:44:07;22.10;;;16.20;;
5587;SDS011;2816;49.778;9.986;2023-06-22T04:46:34;23.23;;;13.77;;
5587;SDS011;2816;49.778;9.986;2023-06-22T04:49:03;20.43;;;16.80;;
5587;SDS011;2816;49.778;9.986;2023-06-22T04:51:38;23.57;;;16.50;;
5587;SDS011;2816;49.778;9.986;2023-06-22T04:54:06;14.87;;;13.20;;
5587;SDS011;2816;49.778;9.986;2023-06-22T04:56:34;26.90;;;16.03;;
5587;SDS011;2816;49.778;9.986;2023-06-22T04:59:01;21.17;;;13.70;;
5587;SDS011;2816;49.778;9.986;2023-06-22T05:01:29;15.27;;;13.63;;
5587;SDS011;2816;49.778;9.986;2023-06-22T05:03:57;17.50;;;14.10;;
5587;SDS011;2816;49.778;9.986;2023-06-22T05:06:26;19.10;;;14.37;;
5587;SDS011;2816;49.778;9.986;2023-06-22T05:08:55;20.80;;;15.77;;
5587;SDS011;2816;49.778;9.986;2023-06-22T05:11:24;18.97;;;16.03;;
5587;SDS011;2816;49.778;9.986;2023-06-22T05:13:51;17.97;;;14.57;;
5587;SDS011;2816;49.778;9.986;2023-06-22T05:16:19;21.30;;;15.00;;
5587;SDS011;2816;49.778;9.986;2023-06-22T05:18:49;27.57;;;16.40;;
5587;SDS011;2816;49.778;9.986;2023-06-22T05:21:18;56.40;;;19.40;;
5587;SDS011;2816;49.778;9.986;2023-06-22T05:23:47;28.13;;;17.97;;
5587;SDS011;2816;49.778;9.986;2023-06-22T05:26:15;35.00;;;13.00;;
5587;SDS011;2816;49.778;9.986;2023-06-22T05:28:42;31.83;;;17.10;;
5587;SDS011;2816;49.778;9.986;2023-06-22T05:31:11;24.73;;;14.77;;
5587;SDS011;2816;49.778;9.986;2023-06-22T05:33:38;22.70;;;17.10;;
5587;SDS011;2816;49.778;9.986;2023-06-22T05:36:05;21.60;;;16.77;;
5587;SDS011;2816;49.778;9.986;2023-06-22T05:38:32;19.17;;;16.57;;
5587;SDS011;2816;49.778;9.986;2023-06-22T05:40:59;24.90;;;14.93;;
5587;SDS011;2816;49.778;9.986;2023-06-22T05:43:28;17.90;;;15.50;;
5587;SDS011;2816;49.778;9.986;2023-06-22T05:45:55;16.47;;;14.30;;
5587;SDS011;2816;49.778;9.986;2023-06-22T05:48:21;19.40;;;14.60;;
5587;SDS011;2816;49.778;9.986;2023-06-22T05:50:49;20.83;;;15.00;;
5587;SDS011;2816;49.778;9.986;2023-06-22T05:53:16;25.13;;;15.27;;
5587;SDS011;2816;49.778;9.986;2023-06-22T05:55:43;19.00;;;15.37;;
5587;SDS011;2816;49.778;9.986;2023-06-22T05:58:10;28.03;;;15.60;;
5587;SDS011;2816;49.778;9.986;2023-06-22T06:00:39;17.13;;;15.30;;
5587;SDS011;2816;49.778;9.986;2023-06-22T06:03:06;20.60;;;14.70;;
5587;SDS011;2816;49.778;9.986;2023-06-22T06:05:34;15.57;;;13.93;;
5587;SDS011;2816;49.778;9.986;2023-06-22T06:08:01;23.23;;;14.43;;
5587;SDS011;2816;49.778;9.986;2023-06-22T06:10:30;16.03;;;13.90;;
5587;SDS011;2816;49.778;9.986;2023-06-22T06:12:57;15.40;;;13.37;;
5587;SDS011;2816;49.778;9.986;2023-06-22T06:15:26;14.77;;;11.73;;
5587;SDS011;2816;49.778;9.986;2023-06-22T06:17:54;18.07;;;14.50;;
5587;SDS011;2816;49.778;9.986;2023-06-22T06:20:22;23.37;;;13.97;;
5587;SDS011;2816;49.778;9.986;2023-06-22T06:22:50;17.30;;;15.03;;
5587;SDS011;2816;49.778;9.986;2023-06-22T06:25:17;23.50;;;14.77;;
5587;SDS011;2816;49.778;9.986;2023-06-22T06:27:47;22.77;;;13.70;;
5587;SDS011;2816;49.778;9.986;2023-06-22T06:30:16;18.97;;;13.23;;
5587;SDS011;2816;49.778;9.986;2023-06-22T06:32:44;17.93;;;13.30;;
5587;SDS011;2816;49.778;9.986;2023-06-22T06:35:14;19.43;;;14.10;;
5587;SDS011;2816;49.778;9.986;2023-06-22T06:37:41;14.57;;;12.83;;
5587;SDS011;2816;49.778;9.986;2023-06-22T06:40:10;15.40;;;12.70;;
5587;SDS011;2816;49.778;9.986;2023-06-22T06:42:38;16.50;;;14.27;;
5587;SDS011;2816;49.778;9.986;2023-06-22T06:45:08;17.37;;;13.00;;
5587;SDS011;2816;49.778;9.986;2023-06-22T06:47:36;16.73;;;14.03;;
5587;SDS011;2816;49.778;9.986;2023-06-22T06:50:03;16.93;;;13.67;;
5587;SDS011;2816;49.778;9.986;2023-06-22T06:52:33;28.20;;;14.10;;
5587;SDS011;2816;49.778;9.986;2023-06-22T06:54:59;15.23;;;13.40;;
5587;SDS011;2816;49.778;9.986;2023-06-22T06:57:26;18.73;;;13.50;;
5587;SDS011;2816;49.778;9.986;2023-06-22T06:59:54;21.17;;;11.90;;
5587;SDS011;2816;49.778;9.986;2023-06-22T07:02:22;19.90;;;12.77;;
5587;SDS011;2816;49.778;9.986;2023-06-22T07:04:49;14.90;;;12.07;;
5587;SDS011;2816;49.778;9.986;2023-06-22T07:07:16;18.37;;;12.90;;
5587;SDS011;2816;49.778;9.986;2023-06-22T07:09:44;15.33;;;11.67;;
5587;SDS011;2816;49.778;9.986;2023-06-22T07:12:11;15.40;;;12.20;;
5587;SDS011;2816;49.778;9.986;2023-06-22T07:14:38;14.53;;;11.97;;
5587;SDS011;2816;49.778;9.986;2023-06-22T07:17:05;13.90;;;11.13;;
5587;SDS011;2816;49.778;9.986;2023-06-22T07:19:32;13.70;;;11.37;;
5587;SDS011;2816;49.778;9.986;2023-06-22T07:21:59;13.00;;;11.57;;
5587;SDS011;2816;49.778;9.986;2023-06-22T07:24:26;14.37;;;11.33;;
5587;SDS011;2816;49.778;9.986;2023-06-22T07:26:55;17.60;;;12.13;;
5587;SDS011;2816;49.778;9.986;2023-06-22T07:29:22;12.53;;;10.90;;
5587;SDS011;2816;49.778;9.986;2023-06-22T07:31:49;10.50;;;9.40;;
5587;SDS011;2816;49.778;9.986;2023-06-22T07:34:17;12.80;;;10.97;;
5587;SDS011;2816;49.778;9.986;2023-06-22T07:36:44;13.90;;;10.60;;
5587;SDS011;2816;49.778;9.986;2023-06-22T07:39:12;15.57;;;10.50;;
5587;SDS011;2816;49.778;9.986;2023-06-22T07:41:39;13.60;;;11.10;;
5587;SDS011;2816;49.778;9.986;2023-06-22T07:44:08;13.17;;;10.40;;
5587;SDS011;2816;49.778;9.986;2023-06-22T07:46:35;11.97;;;10.70;;
5587;SDS011;2816;49.778;9.986;2023-06-22T07:49:02;12.83;;;10.70;;
5587;SDS011;2816;49.778;9.986;2023-06-22T07:51:29;11.50;;;10.30;;
5587;SDS011;2816;49.778;9.986;2023-06-22T07:53:56;17.07;;;10.20;;
5587;SDS011;2816;49.778;9.986;2023-06-22T07:56:23;16.60;;;11.60;;
5587;SDS011;2816;49.778;9.986;2023-06-22T07:58:50;13.80;;;11.60;;
5587;SDS011;2816;49.778;9.986;2023-06-22T08:01:19;14.63;;;10.73;;
5587;SDS011;2816;49.778;9.986;2023-06-22T08:03:47;13.27;;;11.67;;
5587;SDS011;2816;49.778;9.986;2023-06-22T08:06:14;13.40;;;11.00;;
5587;SDS011;2816;49.778;9.986;2023-06-22T08:08:41;12.20;;;10.93;;
5587;SDS011;2816;49.778;9.986;2023-06-22T08:11:08;13.57;;;10.60;;
5587;SDS011;2816;49.778;9.986;2023-06-22T08:13:35;13.90;;;10.33;;
5587;SDS011;2816;49.778;9.986;2023-06-22T08:16:02;13.67;;;11.23;;
5587;SDS011;2816;49.778;9.986;2023-06-22T08:18:31;14.27;;;10.47;;
5587;SDS011;2816;49.778;9.986;2023-06-22T08:20:58;11.40;;;10.20;;
5587;SDS011;2816;49.778;9.986;2023-06-22T08:23:25;10.40;;;9.40;;
5587;SDS011;2816;49.778;9.986;2023-06-22T08:25:52;25.13;;;10.30;;
5587;SDS011;2816;49.778;9.986;2023-06-22T08:28:19;9.73;;;8.40;;
5587;SDS011;2816;49.778;9.986;2023-06-22T08:30:46;10.37;;;8.77;;
5587;SDS011;2816;49.778;9.986;2023-06-22T08:33:12;14.80;;;9.40;;
5587;SDS011;2816;49.778;9.986;2023-06-22T08:35:41;8.80;;;7.90;;
5587;SDS011;2816;49.778;9.986;2023-06-22T08:38:08;17.70;;;8.33;;
5587;SDS011;2816;49.778;9.986;2023-06-22T08:40:35;12.20;;;8.27;;
5587;SDS011;2816;49.778;9.986;2023-06-22T08:43:03;11.67;;;8.00;;
5587;SDS011;2816;49.778;9.986;2023-06-22T08:45:30;11.50;;;8.03;;
5587;SDS011;2816;49.778;9.986;2023-06-22T08:47:57;11.83;;;8.03;;
5587;SDS011;2816;49.778;9.986;2023-06-22T08:50:24;11.90;;;7.60;;
5587;SDS011;2816;49.778;9.986;2023-06-22T08:52:52;11.10;;;7.80;;
5587;SDS011;2816;49.778;9.986;2023-06-22T08:55:19;9.87;;;7.47;;
5587;SDS011;2816;49.778;9.986;2023-06-22T08:57:46;8.57;;;7.20;;
5587;SDS011;2816;49.778;9.986;2023-06-22T09:00:13;16.33;;;7.30;;
5587;SDS011;2816;49.778;9.986;2023-06-22T09:02:42;9.33;;;6.87;;
5587;SDS011;2816;49.778;9.986;2023-06-22T09:05:09;7.30;;;6.60;;
5587;SDS011;2816;49.778;9.986;2023-06-22T09:07:36;10.83;;;6.23;;
5587;SDS011;2816;49.778;9.986;2023-06-22T09:10:05;7.33;;;5.67;;
5587;SDS011;2816;49.778;9.986;2023-06-22T09:12:33;9.97;;;6.00;;
5587;SDS011;2816;49.778;9.986;2023-06-22T09:15:03;9.07;;;6.37;;
5587;SDS011;2816;49.778;9.986;2023-06-22T09:17:31;9.50;;;6.40;;
5587;SDS011;2816;49.778;9.986;2023-06-22T09:19:59;6.87;;;6.13;;
5587;SDS011;2816;49.778;9.986;2023-06-22T09:22:27;7.40;;;5.70;;
5587;SDS011;2816;49.778;9.986;2023-06-22T09:24:54;6.83;;;6.00;;
5587;SDS011;2816;49.778;9.986;2023-06-22T09:27:23;7.27;;;6.23;;
5587;SDS011;2816;49.778;9.986;2023-06-22T09:29:50;6.20;;;5.43;;
5587;SDS011;2816;49.778;9.986;2023-06-22T09:32:17;8.87;;;6.57;;
5587;SDS011;2816;49.778;9.986;2023-06-22T09:34:44;10.10;;;6.10;;
5587;SDS011;2816;49.778;9.986;2023-06-22T09:37:10;9.13;;;6.60;;
5587;SDS011;2816;49.778;9.986;2023-06-22T09:39:37;11.50;;;5.50;;
5587;SDS011;2816;49.778;9.986;2023-06-22T09:42:05;10.70;;;5.50;;
5587;SDS011;2816;49.778;9.986;2023-06-22T09:44:33;12.90;;;5.57;;
5587;SDS011;2816;49.778;9.986;2023-06-22T09:47:00;9.20;;;5.20;;
5587;SDS011;2816;49.778;9.986;2023-06-22T09:49:27;11.43;;;5.70;;
5587;SDS011;2816;49.778;9.986;2023-06-22T09:51:54;9.53;;;5.73;;
5587;SDS011;2816;49.778;9.986;2023-06-22T09:54:21;8.80;;;5.30;;
5587;SDS011;2816;49.778;9.986;2023-06-22T09:56:49;9.73;;;5.17;;
5587;SDS011;2816;49.778;9.986;2023-06-22T09:59:15;9.00;;;5.90;;
5587;SDS011;2816;49.778;9.986;2023-06-22T10:01:44;7.83;;;5.60;;
5587;SDS011;2816;49.778;9.986;2023-06-22T10:04:11;9.47;;;5.37;;
5587;SDS011;2816;49.778;9.986;2023-06-22T10:06:37;6.33;;;5.00;;
5587;SDS011;2816;49.778;9.986;2023-06-22T10:09:05;10.60;;;5.00;;
5587;SDS011;2816;49.778;9.986;2023-06-22T10:11:32;8.60;;;5.63;;
5587;SDS011;2816;49.778;9.986;2023-06-22T10:14:00;6.73;;;5.07;;
5587;SDS011;2816;49.778;9.986;2023-06-22T10:16:30;8.00;;;4.73;;
5587;SDS011;2816;49.778;9.986;2023-06-22T10:18:58;9.47;;;4.93;;
5587;SDS011;2816;49.778;9.986;2023-06-22T10:21:25;7.13;;;4.53;;
5587;SDS011;2816;49.778;9.986;2023-06-22T10:23:53;6.17;;;4.70;;
5587;SDS011;2816;49.778;9.986;2023-06-22T10:26:20;11.27;;;4.70;;
5587;SDS011;2816;49.778;9.986;2023-06-22T10:28:47;9.80;;;5.37;;
5587;SDS011;2816;49.778;9.986;2023-06-22T10:31:14;5.97;;;4.57;;
5587;SDS011;2816;49.778;9.986;2023-06-22T10:33:41;7.00;;;5.33;;
5587;SDS011;2816;49.778;9.986;2023-06-22T10:36:10;8.20;;;4.80;;
5587;SDS011;2816;49.778;9.986;2023-06-22T10:38:37;8.03;;;5.10;;
5587;SDS011;2816;49.778;9.986;2023-06-22T10:41:04;12.50;;;4.73;;
5587;SDS011;2816;49.778;9.986;2023-06-22T10:43:31;9.80;;;5.83;;
5587;SDS011;2816;49.778;9.986;2023-06-22T10:45:58;9.13;;;4.93;;
5587;SDS011;2816;49.778;9.986;2023-06-22T10:48:25;7.90;;;4.73;;
5587;SDS011;2816;49.778;9.986;2023-06-22T10:50:52;12.90;;;4.77;;
5587;SDS011;2816;49.778;9.986;2023-06-22T10:53:21;8.27;;;4.67;;
5587;SDS011;2816;49.778;9.986;2023-06-22T10:55:48;7.63;;;4.83;;
5587;SDS011;2816;49.778;9.986;2023-06-22T10:58:16;8.60;;;5.00;;
5587;SDS011;2816;49.778;9.986;2023-06-22T11:00:44;9.63;;;4.97;;
5587;SDS011;2816;49.778;9.986;2023-06-22T11:03:11;8.63;;;4.17;;
5587;SDS011;2816;49.778;9.986;2023-06-22T11:05:39;7.93;;;4.63;;
5587;SDS011;2816;49.778;9.986;2023-06-22T11:08:06;10.80;;;4.90;;
5587;SDS011;2816;49.778;9.986;2023-06-22T11:10:34;12.30;;;5.00;;
5587;SDS011;2816;49.778;9.986;2023-06-22T11:13:01;12.93;;;4.63;;
5587;SDS011;2816;49.778;9.986;2023-06-22T11:15:29;7.77;;;4.47;;
5587;SDS011;2816;49.778;9.986;2023-06-22T11:17:56;8.73;;;4.67;;
5587;SDS011;2816;49.778;9.986;2023-06-22T11:20:23;9.33;;;4.67;;
5587;SDS011;2816;49.778;9.986;2023-06-22T11:22:50;11.90;;;5.10;;
5587;SDS011;2816;49.778;9.986;2023-06-22T11:25:17;10.10;;;4.60;;
5587;SDS011;2816;49.778;9.986;2023-06-22T11:27:45;8.47;;;4.80;;
5587;SDS011;2816;49.778;9.986;2023-06-22T11:30:12;10.13;;;4.77;;
5587;SDS011;2816;49.778;9.986;2023-06-22T11:32:39;7.30;;;4.93;;
5587;SDS011;2816;49.778;9.986;2023-06-22T11:35:06;9.73;;;4.60;;
5587;SDS011;2816;49.778;9.986;2023-06-22T11:37:34;15.73;;;5.00;;
5587;SDS011;2816;49.778;9.986;2023-06-22T11:40:02;11.77;;;4.93;;
5587;SDS011;2816;49.778;9.986;2023-06-22T11:42:33;15.23;;;5.27;;
5587;SDS011;2816;49.778;9.986;2023-06-22T11:45:02;10.97;;;4.80;;
5587;SDS011;2816;49.778;9.986;2023-06-22T11:47:31;11.40;;;4.60;;
5587;SDS011;2816;49.778;9.986;2023-06-22T11:49:58;8.73;;;5.00;;
5587;SDS011;2816;49.778;9.986;2023-06-22T11:52:25;7.63;;;4.47;;
5587;SDS011;2816;49.778;9.986;2023-06-22T11:54:52;10.80;;;4.83;;
5587;SDS011;2816;49.778;9.986;2023-06-22T11:57:19;12.60;;;4.80;;
5587;SDS011;2816;49.778;9.986;2023-06-22T11:59:46;14.43;;;5.03;;
5587;SDS011;2816;49.778;9.986;2023-06-22T12:02:14;14.63;;;4.97;;
5587;SDS011;2816;49.778;9.986;2023-06-22T12:04:41;15.00;;;5.27;;
5587;SDS011;2816;49.778;9.986;2023-06-22T12:07:08;11.87;;;4.87;;
5587;SDS011;2816;49.778;9.986;2023-06-22T12:09:35;8.57;;;5.20;;
5587;SDS011;2816;49.778;9.986;2023-06-22T12:12:02;17.60;;;5.07;;
5587;SDS011;2816;49.778;9.986;2023-06-22T12:14:30;12.30;;;4.93;;
5587;SDS011;2816;49.778;9.986;2023-06-22T12:16:57;17.77;;;4.87;;
5587;SDS011;2816;49.778;9.986;2023-06-22T12:19:25;11.80;;;4.50;;
5587;SDS011;2816;49.778;9.986;2023-06-22T12:21:52;10.87;;;4.70;;
5587;SDS011;2816;49.778;9.986;2023-06-22T12:24:19;14.63;;;4.67;;
5587;SDS011;2816;49.778;9.986;2023-06-22T12:26:46;9.70;;;4.30;;
5587;SDS011;2816;49.778;9.986;2023-06-22T12:29:12;8.20;;;4.73;;
5587;SDS011;2816;49.778;9.986;2023-06-22T12:31:39;10.57;;;5.07;;
5587;SDS011;2816;49.778;9.986;2023-06-22T12:34:06;10.57;;;4.97;;
5587;SDS011;2816;49.778;9.986;2023-06-22T12:36:35;9.43;;;5.30;;
5587;SDS011;2816;49.778;9.986;2023-06-22T12:39:01;9.40;;;4.93;;
5587;SDS011;2816;49.778;9.986;2023-06-22T12:41:29;7.70;;;5.03;;
5587;SDS011;2816;49.778;9.986;2023-06-22T12:43:56;9.90;;;5.43;;
5587;SDS011;2816;49.778;9.986;2023-06-22T12:46:23;10.67;;;5.30;;
5587;SDS011;2816;49.778;9.986;2023-06-22T12:48:50;9.60;;;4.50;;
5587;SDS011;2816;49.778;9.986;2023-06-22T12:51:20;16.23;;;5.30;;
5587;SDS011;2816;49.778;9.986;2023-06-22T12:53:49;8.37;;;5.03;;
5587;SDS011;2816;49.778;9.986;2023-06-22T12:56:16;10.83;;;5.10;;
5587;SDS011;2816;49.778;9.986;2023-06-22T12:58:43;10.83;;;5.30;;
5587;SDS011;2816;49.778;9.986;2023-06-22T13:01:10;9.10;;;4.90;;
5587;SDS011;2816;49.778;9.986;2023-06-22T13:03:37;7.10;;;4.60;;
5587;SDS011;2816;49.778;9.986;2023-06-22T13:06:04;8.70;;;4.90;;
5587;SDS011;2816;49.778;9.986;2023-06-22T13:08:31;13.10;;;5.13;;
5587;SDS011;2816;49.778;9.986;2023-06-22T13:10:59;8.03;;;4.67;;
5587;SDS011;2816;49.778;9.986;2023-06-22T13:13:26;8.83;;;4.67;;
5587;SDS011;2816;49.778;9.986;2023-06-22T13:15:53;10.23;;;4.70;;
5587;SDS011;2816;49.778;9.986;2023-06-22T13:18:20;9.60;;;5.70;;
5587;SDS011;2816;49.778;9.986;2023-06-22T13:20:47;8.50;;;5.00;;
5587;SDS011;2816;49.778;9.986;2023-06-22T13:23:13;11.30;;;4.53;;
5587;SDS011;2816;49.778;9.986;2023-06-22T13:25:40;12.20;;;5.20;;
5587;SDS011;2816;49.778;9.986;2023-06-22T13:28:09;8.73;;;4.87;;
5587;SDS011;2816;49.778;9.986;2023-06-22T13:30:38;14.50;;;5.03;;
5587;SDS011;2816;49.778;9.986;2023-06-22T13:33:05;10.37;;;4.97;;
5587;SDS011;2816;49.778;9.986;2023-06-22T13:35:32;10.53;;;6.27;;
5587;SDS011;2816;49.778;9.986;2023-06-22T13:38:00;7.37;;;4.30;;
5587;SDS011;2816;49.778;9.986;2023-06-22T13:40:27;11.83;;;4.70;;
5587;SDS011;2816;49.778;9.986;2023-06-22T13:42:53;13.00;;;5.10;;
5587;SDS011;2816;49.778;9.986;2023-06-22T13:45:22;15.30;;;4.43;;
5587;SDS011;2816;49.778;9.986;2023-06-22T13:47:49;9.60;;;4.90;;
5587;SDS011;2816;49.778;9.986;2023-06-22T13:50:16;16.33;;;5.13;;
5587;SDS011;2816;49.778;9.986;2023-06-22T13:52:42;10.83;;;4.70;;
5587;SDS011;2816;49.778;9.986;2023-06-22T13:55:09;7.87;;;4.43;;
5587;SDS011;2816;49.778;9.986;2023-06-22T13:57:39;9.60;;;4.93;;
5587;SDS011;2816;49.778;9.986;2023-06-22T14:00:07;14.63;;;5.03;;
5587;SDS011;2816;49.778;9.986;2023-06-22T14:02:36;24.20;;;5.00;;
5587;SDS011;2816;49.778;9.986;2023-06-22T14:05:03;10.43;;;4.60;;
5587;SDS011;2816;49.778;9.986;2023-06-22T14:07:30;13.73;;;5.33;;
5587;SDS011;2816;49.778;9.986;2023-06-22T14:09:57;10.80;;;4.80;;
5587;SDS011;2816;49.778;9.986;2023-06-22T14:12:26;14.93;;;5.00;;
5587;SDS011;2816;49.778;9.986;2023-06-22T14:14:53;15.13;;;4.97;;
5587;SDS011;2816;49.778;9.986;2023-06-22T14:17:20;13.63;;;5.10;;
5587;SDS011;2816;49.778;9.986;2023-06-22T14:19:51;8.03;;;4.73;;
5587;SDS011;2816;49.778;9.986;2023-06-22T14:22:19;8.57;;;4.80;;
5587;SDS011;2816;49.778;9.986;2023-06-22T14:24:46;9.10;;;4.63;;
5587;SDS011;2816;49.778;9.986;2023-06-22T14:27:14;8.67;;;4.60;;
5587;SDS011;2816;49.778;9.986;2023-06-22T14:29:41;12.33;;;5.10;;
5587;SDS011;2816;49.778;9.986;2023-06-22T14:32:08;7.00;;;4.53;;
5587;SDS011;2816;49.778;9.986;2023-06-22T14:34:35;15.27;;;4.90;;
5587;SDS011;2816;49.778;9.986;2023-06-22T14:37:06;10.80;;;4.60;;
5587;SDS011;2816;49.778;9.986;2023-06-22T14:39:34;13.93;;;4.80;;
5587;SDS011;2816;49.778;9.986;2023-06-22T14:42:02;7.50;;;4.07;;
5587;SDS011;2816;49.778;9.986;2023-06-22T14:44:29;8.13;;;4.50;;
5587;SDS011;2816;49.778;9.986;2023-06-22T14:46:56;6.77;;;4.00;;
5587;SDS011;2816;49.778;9.986;2023-06-22T14:49:23;10.80;;;5.03;;
5587;SDS011;2816;49.778;9.986;2023-06-22T14:51:50;13.93;;;4.33;;
5587;SDS011;2816;49.778;9.986;2023-06-22T14:54:19;11.77;;;4.33;;
5587;SDS011;2816;49.778;9.986;2023-06-22T14:56:45;6.40;;;4.03;;
5587;SDS011;2816;49.778;9.986;2023-06-22T14:59:13;12.00;;;4.20;;
5587;SDS011;2816;49.778;9.986;2023-06-22T15:01:40;15.70;;;4.90;;